createdAt,value
2018-03-29T12:48:24.734Z,99151.62
2018-03-29T12:50:53.085Z,99151.59
2018-03-29T12:53:20.582Z,99155.14
2018-03-29T12:55:48.129Z,99147.20
2018-03-29T12:58:15.585Z,99155.39
2018-03-29T13:00:43.199Z,99151.51
2018-03-29T13:03:10.799Z,99143.59
2018-03-29T13:05:38.366Z,99145.84
2018-03-29T13:08:05.846Z,99141.63
2018-03-29T13:10:33.345Z,99142.14
2018-03-29T13:13:00.861Z,99145.59
2018-03-29T13:15:28.371Z,99136.95
2018-03-29T13:17:55.851Z,99137.44
2018-03-29T13:20:23.356Z,99146.36
2018-03-29T13:22:50.922Z,99148.47
2018-03-29T13:25:19.243Z,99143.22
2018-03-29T13:27:58.165Z,99149.07
2018-03-29T13:30:25.646Z,99153.20
2018-03-29T13:32:53.139Z,99154.95
2018-03-29T13:35:20.615Z,99149.60
2018-03-29T13:37:48.126Z,99149.78
2018-03-29T13:40:15.635Z,99143.05
2018-03-29T13:42:43.183Z,99141.38
2018-03-29T13:45:10.652Z,99137.00
2018-03-29T13:47:38.716Z,99127.05
2018-03-29T13:50:06.191Z,99125.08
2018-03-29T13:52:33.715Z,99126.84
2018-03-29T13:55:01.236Z,99131.89
2018-03-29T13:57:28.788Z,99124.19
2018-03-29T13:59:56.251Z,99127.55
2018-03-29T14:02:24.092Z,99127.13
2018-03-29T14:04:51.583Z,99133.59
2018-03-29T14:07:19.086Z,99126.45
2018-03-29T14:09:48.163Z,99129.06
2018-03-29T14:12:15.655Z,99116.25
2018-03-29T14:14:43.538Z,99123.20
2018-03-29T14:17:11.050Z,99118.57
2018-03-29T14:19:38.557Z,99120.80
2018-03-29T14:22:06.078Z,99119.66
2018-03-29T14:24:33.619Z,99124.91
2018-03-29T14:27:01.140Z,99127.84
2018-03-29T14:29:28.639Z,99124.55
2018-03-29T14:31:56.155Z,99128.80
2018-03-29T14:34:23.712Z,99118.34
2018-03-29T14:36:51.263Z,99122.13
2018-03-29T14:39:19.474Z,99121.97
2018-03-29T14:41:46.965Z,99120.41
2018-03-29T14:44:14.586Z,99116.83
2018-03-29T14:46:42.092Z,99122.86
2018-03-29T14:49:09.577Z,99119.17
2018-03-29T14:51:37.049Z,99124.23
2018-03-29T14:54:04.758Z,99120.52
2018-03-29T14:56:32.247Z,99121.53
2018-03-29T14:58:59.850Z,99122.66
2018-03-29T15:01:27.375Z,99115.86
2018-03-29T15:03:54.907Z,99120.95
2018-03-29T15:06:22.617Z,99118.81
2018-03-29T15:08:50.154Z,99114.94
2018-03-29T15:11:19.271Z,99117.28
2018-03-29T15:13:47.021Z,99113.97
2018-03-29T15:16:14.504Z,99114.09
2018-03-29T15:18:42.086Z,99105.30
2018-03-29T15:21:09.592Z,99115.66
2018-03-29T15:23:37.205Z,99106.27
2018-03-29T15:26:04.708Z,99095.40
2018-03-29T15:28:32.239Z,99095.24
2018-03-29T15:30:59.719Z,99093.13
2018-03-29T15:33:27.349Z,99086.53
2018-03-29T15:35:54.852Z,99087.80
2018-03-29T15:38:22.443Z,99090.34
2018-03-29T15:40:50.050Z,99083.36
2018-03-29T15:43:17.907Z,99082.05
2018-03-29T15:45:45.391Z,99081.14
2018-03-29T15:48:12.900Z,99082.98
2018-03-29T15:50:40.374Z,99080.72
2018-03-29T15:53:08.109Z,99076.89
2018-03-29T15:55:35.729Z,99077.57
2018-03-29T15:58:03.282Z,99072.59
2018-03-29T16:00:31.051Z,99067.47
2018-03-29T16:02:58.567Z,99066.17
2018-03-29T16:05:26.112Z,99062.27
2018-03-29T16:07:53.583Z,99061.70
2018-03-29T16:10:21.140Z,99067.42
2018-03-29T16:12:49.931Z,99064.20
2018-03-29T16:15:17.464Z,99066.80
2018-03-29T16:17:44.991Z,99066.42
2018-03-29T16:20:12.507Z,99060.62
2018-03-29T16:22:40.000Z,99059.70
2018-03-29T16:25:07.496Z,99063.31
2018-03-29T16:27:34.988Z,99063.91
2018-03-29T16:30:02.937Z,99059.66
2018-03-29T16:32:30.596Z,99058.98
2018-03-29T16:34:58.160Z,99058.41
2018-03-29T16:37:25.643Z,99064.74
2018-03-29T16:39:53.172Z,99062.87
2018-03-29T16:42:20.791Z,99060.39
2018-03-29T16:44:49.032Z,99062.50
2018-03-29T16:47:18.015Z,99065.89
2018-03-29T16:49:45.527Z,99070.59
2018-03-29T16:52:13.158Z,99071.44
2018-03-29T16:54:40.719Z,99071.07
2018-03-29T16:57:08.222Z,99072.23
2018-03-29T16:59:35.727Z,99074.86
2018-03-29T17:02:03.598Z,99075.45
2018-03-29T17:04:31.414Z,99078.78
2018-03-29T17:07:00.077Z,99071.48
2018-03-29T17:09:27.829Z,99078.91
2018-03-29T17:11:56.195Z,99081.34
2018-03-29T17:14:23.739Z,99086.36
2018-03-29T17:16:51.662Z,99087.02
2018-03-29T17:19:20.086Z,99093.20
2018-03-29T17:21:48.536Z,99095.84
2018-03-29T17:24:16.054Z,99090.36
2018-03-29T17:26:43.547Z,99098.29
2018-03-29T17:29:11.202Z,99101.30
2018-03-29T17:31:38.712Z,99104.93
2018-03-29T17:34:06.247Z,99106.86
2018-03-29T17:36:33.883Z,99106.37
2018-03-29T17:39:01.388Z,99116.41
2018-03-29T17:41:28.904Z,99116.27
2018-03-29T17:43:56.670Z,99113.01
2018-03-29T17:46:24.343Z,99115.47
2018-03-29T17:48:51.882Z,99111.11
2018-03-29T17:51:19.396Z,99115.05
2018-03-29T17:53:46.996Z,99124.22
2018-03-29T17:56:14.732Z,99124.61
2018-03-29T17:58:42.216Z,99127.98
2018-03-29T18:01:09.715Z,99127.14
2018-03-29T18:03:37.198Z,99130.09
2018-03-29T18:06:04.722Z,99136.28
2018-03-29T18:08:32.186Z,99142.23
2018-03-29T18:10:59.733Z,99138.44
2018-03-29T18:13:27.231Z,99142.60
2018-03-29T18:15:54.952Z,99137.50
2018-03-29T18:18:22.634Z,99139.25
2018-03-29T18:20:50.299Z,99145.47
2018-03-29T18:23:18.163Z,99136.73
2018-03-29T18:25:47.556Z,99142.64
2018-03-29T18:28:18.127Z,99140.94
2018-03-29T18:30:45.715Z,99140.33
2018-03-29T18:33:14.176Z,99141.59
2018-03-29T18:35:41.710Z,99142.25
2018-03-29T18:38:09.554Z,99137.42
2018-03-29T18:40:37.112Z,99142.41
2018-03-29T18:43:04.882Z,99146.58
2018-03-29T18:45:32.431Z,99151.27
2018-03-29T18:47:59.914Z,99143.83
2018-03-29T18:50:27.405Z,99154.19
2018-03-29T18:52:54.908Z,99150.94
2018-03-29T18:55:22.603Z,99153.85
2018-03-29T18:57:50.159Z,99158.16
2018-03-29T19:00:17.983Z,99158.59
2018-03-29T19:02:45.527Z,99155.61
2018-03-29T19:05:13.041Z,99167.34
2018-03-29T19:07:40.552Z,99165.41
2018-03-29T19:10:08.042Z,99167.41
2018-03-29T19:12:35.640Z,99164.68
2018-03-29T19:15:03.143Z,99165.09
2018-03-29T19:17:30.799Z,99166.53
2018-03-29T19:19:58.331Z,99165.56
2018-03-29T19:22:25.870Z,99160.33
2018-03-29T19:24:53.362Z,99160.97
2018-03-29T19:27:21.079Z,99162.20
2018-03-29T19:29:49.537Z,99171.55
2018-03-29T19:32:17.612Z,99164.77
2018-03-29T19:34:45.116Z,99159.47
2018-03-29T19:37:12.621Z,99159.07
2018-03-29T19:39:40.218Z,99157.33
2018-03-29T19:42:07.851Z,99157.69
2018-03-29T19:44:35.405Z,99167.56
2018-03-29T19:47:03.063Z,99167.19
2018-03-29T19:49:30.557Z,99156.38
2018-03-29T19:51:58.216Z,99169.44
2018-03-29T19:54:25.841Z,99171.84
2018-03-29T19:56:53.319Z,99175.58
2018-03-29T19:59:20.796Z,99176.82
2018-03-29T20:01:49.771Z,99178.42
2018-03-29T20:04:17.533Z,99184.83
2018-03-29T20:06:45.047Z,99181.09
2018-03-29T20:09:14.069Z,99187.70
2018-03-29T20:11:41.612Z,99190.33
2018-03-29T20:14:09.080Z,99191.02
2018-03-29T20:16:36.651Z,99190.53
2018-03-29T20:19:04.132Z,99192.75
2018-03-29T20:21:31.646Z,99188.70
2018-03-29T20:23:59.151Z,99193.10
2018-03-29T20:26:26.628Z,99198.51
2018-03-29T20:28:54.134Z,99197.51
2018-03-29T20:31:21.608Z,99202.28
2018-03-29T20:33:49.136Z,99197.62
2018-03-29T20:36:16.602Z,99201.19
2018-03-29T20:38:44.105Z,99201.14
2018-03-29T20:41:11.601Z,99193.02
2018-03-29T20:43:39.110Z,99195.61
2018-03-29T20:46:06.618Z,99184.23
2018-03-29T20:48:34.120Z,99185.60
2018-03-29T20:51:01.575Z,99175.07
2018-03-29T20:53:30.948Z,99185.30
2018-03-29T20:55:58.445Z,99185.55
2018-03-29T20:58:25.948Z,99184.73
2018-03-29T21:00:53.407Z,99183.50
2018-03-29T21:03:21.296Z,99175.59
2018-03-29T21:05:48.751Z,99185.52
2018-03-29T21:08:16.261Z,99186.08
2018-03-29T21:10:43.753Z,99186.45
2018-03-29T21:13:11.300Z,99186.41
2018-03-29T21:15:38.799Z,99183.97
2018-03-29T21:18:06.270Z,99187.53
2018-03-29T21:20:35.216Z,99187.16
2018-03-29T21:23:02.748Z,99186.84
2018-03-29T21:25:30.259Z,99189.06
2018-03-29T21:27:57.751Z,99184.57
2018-03-29T21:30:25.267Z,99183.48
2018-03-29T21:32:53.083Z,99183.84
2018-03-29T21:35:20.626Z,99181.53
2018-03-29T21:37:48.140Z,99189.91
2018-03-29T21:40:15.619Z,99189.77
2018-03-29T21:42:43.076Z,99189.73
2018-03-29T21:45:10.568Z,99186.02
2018-03-29T21:47:38.019Z,99183.91
2018-03-29T21:50:05.500Z,99184.47
2018-03-29T21:52:32.954Z,99179.11
2018-03-29T21:55:00.432Z,99184.53
2018-03-29T21:57:27.883Z,99176.58
2018-03-29T21:59:55.347Z,99182.36
2018-03-29T22:02:22.820Z,99180.23
2018-03-29T22:04:50.283Z,99180.25
2018-03-29T22:07:17.739Z,99175.94
2018-03-29T22:09:45.218Z,99182.70
2018-03-29T22:12:12.675Z,99180.12
2018-03-29T22:14:40.183Z,99179.65
2018-03-29T22:17:07.630Z,99175.81
2018-03-29T22:19:35.109Z,99180.31
2018-03-29T22:22:02.567Z,99178.81
2018-03-29T22:24:30.035Z,99177.27
2018-03-29T22:26:57.487Z,99186.98
2018-03-29T22:29:24.966Z,99176.03
2018-03-29T22:31:52.435Z,99174.61
2018-03-29T22:34:19.890Z,99174.88
2018-03-29T22:36:47.383Z,99177.30
2018-03-29T22:39:14.842Z,99177.91
2018-03-29T22:41:42.307Z,99173.77
2018-03-29T22:44:09.761Z,99175.56
2018-03-29T22:46:37.235Z,99179.04
2018-03-29T22:49:04.740Z,99178.77
2018-03-29T22:51:32.206Z,99182.06
2018-03-29T22:53:59.651Z,99176.22
2018-03-29T22:56:27.126Z,99171.47
2018-03-29T22:58:54.579Z,99169.52
2018-03-29T23:01:22.054Z,99172.29
2018-03-29T23:03:49.602Z,99178.61
2018-03-29T23:06:17.084Z,99173.59
2018-03-29T23:08:44.543Z,99169.28
2018-03-29T23:11:12.020Z,99159.55
2018-03-29T23:13:39.467Z,99165.19
2018-03-29T23:16:06.939Z,99162.33
2018-03-29T23:18:34.395Z,99150.67
2018-03-29T23:21:01.870Z,99147.98
2018-03-29T23:23:29.369Z,99148.88
2018-03-29T23:25:56.812Z,99150.27
2018-03-29T23:28:24.268Z,99140.52
2018-03-29T23:30:51.745Z,99147.26
2018-03-29T23:33:19.197Z,99140.87
2018-03-29T23:35:46.667Z,99136.46
2018-03-29T23:38:14.119Z,99134.59
2018-03-29T23:40:41.589Z,99137.02
2018-03-29T23:43:09.040Z,99128.91
2018-03-29T23:45:36.519Z,99124.61
2018-03-29T23:48:03.974Z,99130.32
2018-03-29T23:50:31.442Z,99132.13
2018-03-29T23:52:58.891Z,99131.76
2018-03-29T23:55:26.366Z,99125.06
2018-03-29T23:58:05.774Z,99123.13
